Terminal Aerodrome Forecast
Issued by NWS

Home | Current Version | Previous Version | Text Only | Print | Product List | Glossary On
Versions: 1 2 3 4 5 6 7 8 9 10 11 12 13 14 15 16 17 18 19 20 21 22
000
FTUS43 KLSX 240520
TAFUIN
TAF
KUIN 240520Z 2406/2506 15009KT P6SM SCT025 BKN150
      TEMPO 2406/2408 BKN025
     FM240900 16008KT P6SM VCTS BKN040CB
      TEMPO 2409/2411 4SM TSRA OVC025CB
     FM241300 22012KT P6SM SCT025 BKN060
     FM250000 22012KT 6SM -SHRA SCT025 OVC040=

USA.gov is the U.S. government's official web portal to all federal, state and local government web resources and services.